createdAt,value
2023-05-18T00:02:00.637Z,99870.40
2023-05-18T00:04:28.400Z,99870.00
2023-05-18T00:06:58.032Z,99867.80
2023-05-18T00:09:25.339Z,99865.20
2023-05-18T00:11:55.156Z,99866.60
2023-05-18T00:14:21.685Z,99869.20
2023-05-18T00:16:48.434Z,99872.40
2023-05-18T00:19:15.221Z,99872.40
2023-05-18T00:21:42.803Z,99869.60
2023-05-18T00:24:12.316Z,99872.40
2023-05-18T00:26:39.818Z,99870.00
2023-05-18T00:29:06.718Z,99879.00
2023-05-18T00:31:38.001Z,99881.60
2023-05-18T00:34:10.275Z,99884.00
2023-05-18T00:36:37.388Z,99886.80
2023-05-18T00:39:04.787Z,99885.60
2023-05-18T00:41:31.458Z,99891.80
2023-05-18T00:44:00.231Z,99886.60
2023-05-18T00:46:27.816Z,99890.00
2023-05-18T00:48:56.496Z,99891.00
2023-05-18T00:51:23.708Z,99894.20
2023-05-18T00:53:53.290Z,99894.20
2023-05-18T00:56:22.933Z,99898.20
2023-05-18T00:58:51.806Z,99898.40
2023-05-18T01:01:18.710Z,99907.00
2023-05-18T01:03:45.406Z,99908.40
2023-05-18T01:06:14.044Z,99913.40
2023-05-18T01:08:42.286Z,99912.20
2023-05-18T01:11:21.131Z,99919.00
2023-05-18T01:14:16.501Z,99914.60
2023-05-18T01:16:53.152Z,99914.00
2023-05-18T01:20:08.484Z,99921.40
2023-05-18T01:23:13.395Z,99915.40
2023-05-18T01:26:14.781Z,99917.00
2023-05-18T01:28:45.880Z,99920.00
2023-05-18T01:31:15.322Z,99918.00
2023-05-18T01:33:42.679Z,99915.80
2023-05-18T01:36:09.920Z,99910.20
2023-05-18T01:38:36.478Z,99912.00
2023-05-18T01:41:22.327Z,99915.20
2023-05-18T01:44:48.233Z,99918.40
2023-05-18T01:47:15.996Z,99927.00
2023-05-18T01:49:51.608Z,99929.00
2023-05-18T01:52:46.409Z,99932.00
2023-05-18T01:55:14.415Z,99930.60
2023-05-18T01:57:42.231Z,99934.60
2023-05-18T02:00:09.735Z,99939.40
2023-05-18T02:02:45.401Z,99937.20
2023-05-18T02:05:13.053Z,99940.20
2023-05-18T02:07:40.210Z,99943.40
2023-05-18T02:10:09.022Z,99940.80
2023-05-18T02:12:35.716Z,99947.80
2023-05-18T02:15:04.935Z,99949.80
2023-05-18T02:17:38.524Z,99950.20
2023-05-18T02:20:07.123Z,99953.00
2023-05-18T02:22:34.788Z,99953.40
2023-05-18T02:25:03.563Z,99954.20
2023-05-18T02:27:31.157Z,99957.20
2023-05-18T02:29:58.678Z,99961.20
2023-05-18T02:32:25.767Z,99962.60
2023-05-18T02:34:52.773Z,99961.60
2023-05-18T02:37:19.493Z,99962.20
2023-05-18T02:39:46.058Z,99964.00
2023-05-18T02:42:13.253Z,99967.00
2023-05-18T02:44:41.527Z,99967.80
2023-05-18T02:47:08.183Z,99969.40
2023-05-18T02:49:35.525Z,99968.00
2023-05-18T02:52:02.915Z,99965.40
2023-05-18T02:54:29.547Z,99971.00
2023-05-18T02:56:58.161Z,99970.80
2023-05-18T02:59:32.827Z,99971.60
2023-05-18T03:01:59.870Z,99971.40
2023-05-18T03:04:26.444Z,99975.80
2023-05-18T03:06:56.683Z,99979.80
2023-05-18T03:09:23.935Z,99980.20
2023-05-18T03:11:52.833Z,99985.20
2023-05-18T03:14:20.522Z,99993.20
2023-05-18T03:16:47.433Z,99994.20
2023-05-18T03:19:15.444Z,99989.80
2023-05-18T03:21:42.075Z,99993.60
2023-05-18T03:24:08.729Z,99996.00
2023-05-18T03:26:39.159Z,99997.00
2023-05-18T03:29:05.788Z,100003.40
2023-05-18T03:31:32.798Z,100000.60
2023-05-18T03:33:59.946Z,100001.00
2023-05-18T03:36:27.568Z,99998.00
2023-05-18T03:38:54.102Z,100000.20
2023-05-18T03:41:21.615Z,100000.40
2023-05-18T03:43:48.478Z,99996.40
2023-05-18T03:46:15.086Z,100004.60
2023-05-18T03:48:41.790Z,100006.20
2023-05-18T03:51:08.395Z,100009.40
2023-05-18T03:53:35.735Z,100014.80
2023-05-18T03:56:02.291Z,100016.60
2023-05-18T03:58:29.448Z,100012.20
2023-05-18T04:00:58.122Z,100018.60
2023-05-18T04:03:26.329Z,100017.40
2023-05-18T04:05:53.076Z,100030.60
2023-05-18T04:08:19.748Z,100032.40
2023-05-18T04:10:46.301Z,100033.40
2023-05-18T04:13:12.704Z,100035.20
2023-05-18T04:15:39.234Z,100039.80
2023-05-18T04:18:06.034Z,100039.00
2023-05-18T04:20:32.635Z,100041.80
2023-05-18T04:23:00.735Z,100042.20
2023-05-18T04:25:27.393Z,100037.20
2023-05-18T04:27:55.212Z,100041.20
2023-05-18T04:30:26.001Z,100042.00
2023-05-18T04:32:54.002Z,100044.00
2023-05-18T04:35:20.738Z,100053.40
2023-05-18T04:37:47.232Z,100046.80
2023-05-18T04:40:17.872Z,100047.40
2023-05-18T04:42:46.771Z,100047.20
2023-05-18T04:45:19.741Z,100054.80
2023-05-18T04:47:52.751Z,100057.20
2023-05-18T04:50:20.190Z,100054.80
2023-05-18T04:52:48.149Z,100049.20
2023-05-18T04:55:28.247Z,100059.00
2023-05-18T04:58:00.141Z,100057.80
2023-05-18T05:00:28.813Z,100056.20
2023-05-18T05:02:56.519Z,100058.00
2023-05-18T05:05:23.318Z,100065.00
2023-05-18T05:07:51.014Z,100069.60
2023-05-18T05:10:19.083Z,100068.40
2023-05-18T05:12:47.433Z,100071.40
2023-05-18T05:15:16.455Z,100070.60
2023-05-18T05:17:43.162Z,100076.20
2023-05-18T05:20:10.409Z,100077.00
2023-05-18T05:22:37.127Z,100071.60
2023-05-18T05:25:06.284Z,100071.60
2023-05-18T05:27:33.287Z,100075.20
2023-05-18T05:29:59.969Z,100069.00
2023-05-18T05:32:26.673Z,100075.00
2023-05-18T05:34:54.189Z,100065.80
2023-05-18T05:37:21.229Z,100068.20
2023-05-18T05:39:48.605Z,100069.00
2023-05-18T05:42:16.897Z,100068.40
2023-05-18T05:44:43.618Z,100066.60
2023-05-18T05:47:10.484Z,100065.20
2023-05-18T05:49:37.130Z,100066.60
2023-05-18T05:52:04.434Z,100070.40
2023-05-18T05:54:31.025Z,100065.80
2023-05-18T05:56:57.476Z,100075.80
2023-05-18T05:59:24.488Z,100075.00
2023-05-18T06:01:51.575Z,100064.40
2023-05-18T06:04:18.726Z,100072.20
2023-05-18T06:06:47.192Z,100077.60
2023-05-18T06:09:15.395Z,100075.80
2023-05-18T06:11:42.369Z,100078.40
2023-05-18T06:14:08.926Z,100074.00
2023-05-18T06:16:35.856Z,100073.00
2023-05-18T06:19:03.065Z,100075.00
2023-05-18T06:21:31.023Z,100071.40
2023-05-18T06:24:00.819Z,100069.80
2023-05-18T06:26:27.358Z,100081.80
2023-05-18T06:29:16.433Z,100081.20
2023-05-18T06:32:05.302Z,100083.40
2023-05-18T06:34:38.347Z,100085.80
2023-05-18T06:37:05.655Z,100091.60
2023-05-18T06:39:32.171Z,100092.20
2023-05-18T06:41:58.920Z,100092.60
2023-05-18T06:44:31.510Z,100095.00
2023-05-18T06:47:16.144Z,100099.40
2023-05-18T06:49:42.767Z,100094.40
2023-05-18T06:52:09.474Z,100104.00
2023-05-18T06:54:36.609Z,100098.00
2023-05-18T06:57:04.261Z,100099.60
2023-05-18T06:59:30.858Z,100099.40
2023-05-18T07:01:57.439Z,100097.00
2023-05-18T07:04:24.445Z,100102.40
2023-05-18T07:06:51.036Z,100103.40
2023-05-18T07:09:17.596Z,100109.00
2023-05-18T07:11:44.895Z,100111.60
2023-05-18T07:14:11.417Z,100105.60
2023-05-18T07:16:39.000Z,100106.40
2023-05-18T07:19:05.674Z,100106.80
2023-05-18T07:21:32.528Z,100103.80
2023-05-18T07:23:59.164Z,100108.60
2023-05-18T07:26:25.890Z,100112.60
2023-05-18T07:28:52.475Z,100108.20
2023-05-18T07:31:20.901Z,100107.80
2023-05-18T07:33:47.605Z,100104.80
2023-05-18T07:36:14.709Z,100109.60
2023-05-18T07:38:41.234Z,100115.80
2023-05-18T07:41:07.711Z,100110.80
2023-05-18T07:43:34.235Z,100114.20
2023-05-18T07:46:00.804Z,100122.40
2023-05-18T07:48:27.199Z,100124.20
2023-05-18T07:50:53.633Z,100124.20
2023-05-18T07:53:20.179Z,100121.40
2023-05-18T07:55:47.284Z,100122.80
2023-05-18T07:58:14.069Z,100123.40
2023-05-18T08:00:40.862Z,100118.80
2023-05-18T08:03:08.066Z,100117.40
2023-05-18T08:05:34.562Z,100122.40
2023-05-18T08:08:03.402Z,100126.20
2023-05-18T08:10:31.647Z,100123.40
2023-05-18T08:12:58.036Z,100122.80
2023-05-18T08:15:24.578Z,100129.80
2023-05-18T08:17:51.944Z,100130.60
2023-05-18T08:20:18.642Z,100126.40
2023-05-18T08:22:45.100Z,100132.00
2023-05-18T08:25:11.563Z,100129.20
2023-05-18T08:27:38.174Z,100133.00
2023-05-18T08:30:05.627Z,100138.60
2023-05-18T08:32:32.291Z,100130.40
2023-05-18T08:34:59.821Z,100140.40
2023-05-18T08:37:28.747Z,100138.40
2023-05-18T08:39:55.583Z,100137.60
2023-05-18T08:42:48.536Z,100133.20
2023-05-18T08:45:19.339Z,100130.00
2023-05-18T08:47:45.873Z,100134.20
2023-05-18T08:50:14.536Z,100133.60
2023-05-18T08:52:46.677Z,100139.40
2023-05-18T08:55:13.306Z,100138.20
2023-05-18T08:57:39.791Z,100133.00
2023-05-18T09:00:07.376Z,100140.00
2023-05-18T09:02:34.072Z,100134.20
2023-05-18T09:05:00.684Z,100135.20
2023-05-18T09:07:27.594Z,100139.60
2023-05-18T09:09:54.922Z,100137.80
2023-05-18T09:12:24.373Z,100140.00
2023-05-18T09:14:51.227Z,100140.00
2023-05-18T09:17:18.099Z,100136.00
2023-05-18T09:19:44.551Z,100138.40
2023-05-18T09:22:11.147Z,100137.20
2023-05-18T09:24:38.119Z,100139.40
2023-05-18T09:27:05.621Z,100137.60
2023-05-18T09:29:33.755Z,100136.00
2023-05-18T09:32:04.194Z,100138.40
2023-05-18T09:34:41.424Z,100142.40
2023-05-18T09:37:09.055Z,100146.20
2023-05-18T09:39:35.471Z,100144.80
2023-05-18T09:42:05.474Z,100142.20
2023-05-18T09:44:35.113Z,100144.40
2023-05-18T09:47:06.342Z,100147.80
2023-05-18T09:49:32.756Z,100150.40
2023-05-18T09:51:59.517Z,100147.00
2023-05-18T09:54:25.966Z,100146.60
2023-05-18T09:57:08.929Z,100150.40
2023-05-18T09:59:37.189Z,100141.60
2023-05-18T10:02:11.478Z,100143.20
2023-05-18T10:04:42.352Z,100142.80
2023-05-18T10:07:16.326Z,100138.80
2023-05-18T10:09:44.640Z,100142.00
2023-05-18T10:12:15.252Z,100142.60
2023-05-18T10:14:43.302Z,100137.20
2023-05-18T10:17:16.714Z,100140.20
2023-05-18T10:19:44.388Z,100147.20
2023-05-18T10:22:10.874Z,100143.60
2023-05-18T10:24:39.371Z,100146.80
2023-05-18T10:27:08.779Z,100147.80
2023-05-18T10:29:36.791Z,100146.20
2023-05-18T10:32:06.902Z,100149.60
2023-05-18T10:34:34.344Z,100151.60
2023-05-18T10:37:04.230Z,100149.80
2023-05-18T10:39:36.260Z,100145.80
2023-05-18T10:42:03.033Z,100146.00
2023-05-18T10:44:29.579Z,100146.60
2023-05-18T10:46:56.112Z,100146.40
2023-05-18T10:49:24.704Z,100143.00
2023-05-18T10:51:54.702Z,100143.40
2023-05-18T10:54:22.850Z,100141.00
2023-05-18T10:56:53.059Z,100140.80
2023-05-18T10:59:19.852Z,100138.20
2023-05-18T11:01:47.057Z,100142.20
2023-05-18T11:04:13.759Z,100138.00
2023-05-18T11:06:40.669Z,100137.80
2023-05-18T11:09:07.173Z,100133.80
2023-05-18T11:12:01.662Z,100138.60
2023-05-18T11:14:30.325Z,100137.60
2023-05-18T11:17:26.229Z,100138.00
2023-05-18T11:20:05.305Z,100137.20
2023-05-18T11:22:51.798Z,100135.20
2023-05-18T11:25:27.572Z,100139.60
2023-05-18T11:27:56.981Z,100137.60
2023-05-18T11:30:30.615Z,100138.40
2023-05-18T11:33:18.445Z,100135.20
2023-05-18T11:36:14.234Z,100133.60
2023-05-18T11:38:51.963Z,100136.80
2023-05-18T11:41:42.951Z,100136.20
2023-05-18T11:44:14.329Z,100131.80
2023-05-18T11:47:10.597Z,100138.80
2023-05-18T11:49:47.591Z,100135.80
2023-05-18T11:52:18.687Z,100134.20
2023-05-18T11:54:58.990Z,100136.60
2023-05-18T11:57:34.759Z,100137.40
2023-05-18T12:00:09.748Z,100139.80
2023-05-18T12:02:44.435Z,100139.40
2023-05-18T12:05:11.372Z,100136.20
2023-05-18T12:07:38.901Z,100136.20
2023-05-18T12:10:16.407Z,100140.80
2023-05-18T12:12:42.957Z,100140.60
2023-05-18T12:15:10.832Z,100147.40
2023-05-18T12:17:44.694Z,100141.60
2023-05-18T12:20:15.922Z,100144.40
2023-05-18T12:22:52.380Z,100149.00
2023-05-18T12:25:23.226Z,100143.40
2023-05-18T12:27:51.427Z,100151.20
2023-05-18T12:30:33.778Z,100150.20
2023-05-18T12:33:03.661Z,100150.60
2023-05-18T12:35:31.060Z,100149.80
2023-05-18T12:38:01.147Z,100147.80
2023-05-18T12:40:33.443Z,100151.40
2023-05-18T12:43:00.225Z,100151.60
2023-05-18T12:45:31.372Z,100149.20
2023-05-18T12:48:09.920Z,100148.60
2023-05-18T12:50:38.173Z,100150.20
2023-05-18T12:53:04.744Z,100143.80
2023-05-18T12:55:32.831Z,100149.20
2023-05-18T12:58:14.010Z,100146.80
2023-05-18T13:00:43.551Z,100144.80
2023-05-18T13:03:19.541Z,100144.40
2023-05-18T13:06:04.996Z,100141.80
2023-05-18T13:08:32.414Z,100145.80
2023-05-18T13:11:13.635Z,100146.20
2023-05-18T13:14:10.572Z,100145.20
2023-05-18T13:16:38.728Z,100148.00
2023-05-18T13:19:07.782Z,100145.80
2023-05-18T13:21:35.000Z,100148.20
2023-05-18T13:24:03.005Z,100152.20
2023-05-18T13:26:30.520Z,100144.80
2023-05-18T13:28:57.251Z,100137.80
2023-05-18T13:31:24.498Z,100141.80
2023-05-18T13:33:51.453Z,100138.80
2023-05-18T13:36:17.952Z,100138.80
2023-05-18T13:38:44.414Z,100138.20
2023-05-18T13:41:11.546Z,100140.00
2023-05-18T13:43:38.097Z,100137.00
2023-05-18T13:46:04.645Z,100136.60
2023-05-18T13:48:31.247Z,100137.40
2023-05-18T13:50:57.687Z,100136.40
2023-05-18T13:53:25.179Z,100137.60
2023-05-18T13:55:51.559Z,100142.20
2023-05-18T13:58:18.825Z,100139.00
2023-05-18T14:00:46.003Z,100140.20
2023-05-18T14:03:14.548Z,100138.60
2023-05-18T14:05:41.258Z,100136.60
2023-05-18T14:08:07.845Z,100135.20
2023-05-18T14:10:34.321Z,100135.80
2023-05-18T14:13:00.829Z,100132.00
2023-05-18T14:15:27.351Z,100132.80
2023-05-18T14:17:53.820Z,100144.80
2023-05-18T14:20:20.417Z,100135.80
2023-05-18T14:22:46.903Z,100137.00
2023-05-18T14:25:13.383Z,100138.20
2023-05-18T14:27:39.937Z,100133.40
2023-05-18T14:30:07.174Z,100135.40
2023-05-18T14:32:33.849Z,100137.00
2023-05-18T14:35:00.340Z,100139.60
2023-05-18T14:37:26.888Z,100138.20
2023-05-18T14:39:53.355Z,100132.80
2023-05-18T14:42:19.768Z,100134.80
2023-05-18T14:44:46.440Z,100135.40
2023-05-18T14:50:40.069Z,100135.00
2023-05-18T14:53:08.198Z,100129.40
2023-05-18T14:55:36.150Z,100132.00
2023-05-18T14:58:06.253Z,100136.80
2023-05-18T15:00:34.336Z,100134.60
2023-05-18T15:03:03.707Z,100138.00
2023-05-18T15:05:32.255Z,100137.80
2023-05-18T15:08:00.007Z,100139.40
2023-05-18T15:10:27.882Z,100135.80
2023-05-18T15:12:55.787Z,100141.40
2023-05-18T15:15:25.914Z,100139.00
2023-05-18T15:17:54.535Z,100135.40
2023-05-18T15:20:24.443Z,100137.80
2023-05-18T15:22:52.735Z,100130.00
2023-05-18T15:25:21.050Z,100135.80
2023-05-18T15:27:53.280Z,100136.80
2023-05-18T15:30:21.348Z,100132.80
2023-05-18T15:32:49.544Z,100135.00
2023-05-18T15:35:18.062Z,100139.60
2023-05-18T15:37:46.250Z,100136.60
2023-05-18T15:40:14.179Z,100134.00
2023-05-18T15:42:42.062Z,100137.60
2023-05-18T15:45:10.924Z,100137.60
2023-05-18T15:47:38.812Z,100139.40
2023-05-18T15:50:07.394Z,100138.80
2023-05-18T15:52:35.211Z,100140.60
2023-05-18T15:55:03.065Z,100142.80
2023-05-18T15:57:31.538Z,100141.20
2023-05-18T15:59:59.801Z,100147.20
2023-05-18T16:02:27.793Z,100146.00
2023-05-18T16:04:55.744Z,100147.40
2023-05-18T16:07:23.614Z,100144.40
2023-05-18T16:09:51.603Z,100146.40
2023-05-18T16:12:19.509Z,100147.20
2023-05-18T16:14:47.850Z,100146.80
2023-05-18T16:17:15.956Z,100145.60
2023-05-18T16:19:43.841Z,100151.00
2023-05-18T16:22:11.704Z,100153.40
2023-05-18T16:24:40.404Z,100151.60
2023-05-18T16:27:08.171Z,100151.00
2023-05-18T16:29:36.064Z,100148.40
2023-05-18T16:32:04.227Z,100151.40
2023-05-18T16:34:32.110Z,100151.60
2023-05-18T16:36:59.977Z,100155.00
2023-05-18T16:39:27.747Z,100151.80
2023-05-18T16:41:55.608Z,100151.20
2023-05-18T16:44:23.563Z,100155.40
2023-05-18T16:46:52.174Z,100157.80
2023-05-18T16:49:20.874Z,100162.60
2023-05-18T16:51:48.792Z,100163.20
2023-05-18T16:54:17.100Z,100163.00
2023-05-18T16:56:44.943Z,100168.40
2023-05-18T16:59:12.768Z,100170.20
2023-05-18T17:01:40.748Z,100171.60
2023-05-18T17:04:08.890Z,100175.00
2023-05-18T17:06:37.754Z,100176.20
2023-05-18T17:09:06.534Z,100172.80
2023-05-18T17:11:34.537Z,100173.00
2023-05-18T17:14:03.212Z,100172.40
2023-05-18T17:16:33.033Z,100174.60
2023-05-18T17:19:01.183Z,100179.40
2023-05-18T17:21:30.646Z,100175.00
2023-05-18T17:23:58.485Z,100173.20
2023-05-18T17:26:30.555Z,100180.00
2023-05-18T17:28:58.722Z,100180.60
2023-05-18T17:31:27.106Z,100184.80
2023-05-18T17:33:55.050Z,100185.00
2023-05-18T17:36:23.077Z,100185.80
2023-05-18T17:38:51.176Z,100183.40
2023-05-18T17:41:21.548Z,100184.80
2023-05-18T17:43:49.403Z,100185.00
2023-05-18T17:46:17.488Z,100183.60
2023-05-18T17:48:45.856Z,100182.40
2023-05-18T17:51:13.724Z,100188.00
2023-05-18T17:53:42.776Z,100186.20
2023-05-18T17:56:11.005Z,100188.40
2023-05-18T17:58:39.767Z,100193.80
2023-05-18T18:01:09.490Z,100196.40
2023-05-18T18:03:37.818Z,100197.80
2023-05-18T18:06:06.676Z,100201.60
2023-05-18T18:08:34.746Z,100204.80
2023-05-18T18:11:02.797Z,100205.00
2023-05-18T18:13:30.882Z,100206.00
2023-05-18T18:15:59.041Z,100207.20
2023-05-18T18:18:27.814Z,100205.00
2023-05-18T18:20:55.690Z,100205.60
2023-05-18T18:23:23.655Z,100208.60
2023-05-18T18:25:51.587Z,100203.80
2023-05-18T18:28:19.900Z,100208.40
2023-05-18T18:30:48.058Z,100206.00
2023-05-18T18:33:15.886Z,100206.00
2023-05-18T18:35:43.876Z,100209.20
2023-05-18T18:38:12.936Z,100209.80
2023-05-18T18:40:41.127Z,100210.00
2023-05-18T18:43:09.045Z,100214.40
2023-05-18T18:45:36.996Z,100219.20
2023-05-18T18:48:06.176Z,100225.00
2023-05-18T18:50:34.058Z,100225.60
2023-05-18T18:53:02.777Z,100231.20
2023-05-18T18:55:30.844Z,100231.20
2023-05-18T18:58:01.371Z,100228.60
2023-05-18T19:00:29.269Z,100228.60
2023-05-18T19:02:57.291Z,100233.20
2023-05-18T19:05:26.088Z,100233.20
2023-05-18T19:07:55.878Z,100232.80
2023-05-18T19:10:24.004Z,100232.80
2023-05-18T19:12:52.786Z,100234.40
2023-05-18T19:15:21.491Z,100234.20
2023-05-18T19:17:53.849Z,100238.20
2023-05-18T19:20:22.709Z,100235.40
2023-05-18T19:22:50.641Z,100238.80
2023-05-18T19:25:18.433Z,100245.40
2023-05-18T19:27:46.295Z,100243.20
2023-05-18T19:30:19.048Z,100249.60
2023-05-18T19:32:51.822Z,100246.40
2023-05-18T19:35:20.598Z,100248.00
2023-05-18T19:37:48.539Z,100251.00
2023-05-18T19:40:16.580Z,100249.60
2023-05-18T19:42:44.545Z,100250.40
2023-05-18T19:45:12.485Z,100241.60
2023-05-18T19:47:40.477Z,100247.00
2023-05-18T19:50:08.610Z,100248.20
2023-05-18T19:52:36.594Z,100251.00
2023-05-18T19:55:05.049Z,100249.60
2023-05-18T19:57:33.194Z,100252.60
2023-05-18T20:00:01.586Z,100250.20
2023-05-18T20:02:29.567Z,100248.20
2023-05-18T20:04:57.417Z,100249.40
2023-05-18T20:07:26.529Z,100258.60
2023-05-18T20:09:54.640Z,100259.40
2023-05-18T20:12:22.556Z,100257.20
2023-05-18T20:14:51.383Z,100258.20
2023-05-18T20:17:19.261Z,100254.80
2023-05-18T20:19:53.578Z,100258.20
2023-05-18T20:22:21.730Z,100266.80
2023-05-18T20:24:49.724Z,100264.40
2023-05-18T20:27:17.645Z,100266.20
2023-05-18T20:29:46.221Z,100266.40
2023-05-18T20:32:14.137Z,100261.60
2023-05-18T20:34:44.477Z,100262.00
2023-05-18T20:37:14.241Z,100265.40
2023-05-18T20:39:50.629Z,100268.60
2023-05-18T20:42:22.083Z,100272.60
2023-05-18T20:44:51.368Z,100272.60
2023-05-18T20:47:20.734Z,100274.40
2023-05-18T20:49:48.815Z,100272.00
2023-05-18T20:52:16.733Z,100276.00
2023-05-18T20:54:46.143Z,100277.00
2023-05-18T20:57:13.994Z,100277.80
2023-05-18T20:59:41.815Z,100272.40
2023-05-18T21:02:09.635Z,100280.80
2023-05-18T21:04:37.630Z,100274.60
2023-05-18T21:07:05.620Z,100274.20
2023-05-18T21:09:34.534Z,100283.20
2023-05-18T21:12:02.784Z,100280.80
2023-05-18T21:14:30.495Z,100287.40
2023-05-18T21:16:58.442Z,100288.20
2023-05-18T21:19:26.428Z,100283.60
2023-05-18T21:21:54.297Z,100289.20
2023-05-18T21:24:22.061Z,100286.40
2023-05-18T21:26:49.938Z,100285.20
2023-05-18T21:29:17.709Z,100279.60
2023-05-18T21:31:45.749Z,100279.20
2023-05-18T21:34:13.813Z,100274.40
2023-05-18T21:36:43.219Z,100270.40
2023-05-18T21:39:11.189Z,100272.00
2023-05-18T21:41:40.441Z,100273.40
2023-05-18T21:44:09.146Z,100277.40
2023-05-18T21:46:37.204Z,100279.00
2023-05-18T21:49:06.233Z,100280.20
2023-05-18T21:51:34.018Z,100287.00
2023-05-18T21:54:02.345Z,100283.20
2023-05-18T21:56:30.361Z,100283.20
2023-05-18T21:58:58.309Z,100282.00
2023-05-18T22:01:26.460Z,100284.80
2023-05-18T22:03:54.388Z,100282.40
2023-05-18T22:06:24.977Z,100281.80
2023-05-18T22:08:52.950Z,100278.20
2023-05-18T22:11:22.034Z,100277.40
2023-05-18T22:13:49.858Z,100276.00
2023-05-18T22:16:17.666Z,100277.20
2023-05-18T22:18:45.546Z,100275.80
2023-05-18T22:21:13.394Z,100273.60
2023-05-18T22:23:41.309Z,100274.40
2023-05-18T22:26:09.320Z,100272.60
2023-05-18T22:32:03.337Z,100270.60
2023-05-18T22:34:31.185Z,100274.60
2023-05-18T22:36:59.043Z,100271.80
2023-05-18T22:39:26.908Z,100272.60
2023-05-18T22:41:54.732Z,100268.20
2023-05-18T22:44:22.735Z,100269.80
2023-05-18T22:46:50.765Z,100270.80
2023-05-18T22:49:18.666Z,100269.60
2023-05-18T22:51:46.742Z,100273.20
2023-05-18T22:54:14.522Z,100271.00
2023-05-18T22:56:42.373Z,100271.60
2023-05-18T22:59:11.577Z,100267.60
2023-05-18T23:01:39.531Z,100268.40
2023-05-18T23:04:07.520Z,100268.60
2023-05-18T23:06:35.315Z,100265.20
2023-05-18T23:09:03.156Z,100264.80
2023-05-18T23:11:31.049Z,100270.60
2023-05-18T23:14:02.750Z,100269.60
2023-05-18T23:16:30.586Z,100266.60
2023-05-18T23:18:58.751Z,100261.40
2023-05-18T23:21:26.697Z,100264.40
2023-05-18T23:23:54.669Z,100261.00
2023-05-18T23:26:22.900Z,100262.00
2023-05-18T23:28:51.503Z,100262.40
2023-05-18T23:31:19.388Z,100256.80
2023-05-18T23:33:47.925Z,100260.20
2023-05-18T23:36:15.787Z,100257.00
2023-05-18T23:38:43.584Z,100253.60
2023-05-18T23:41:11.419Z,100257.80
2023-05-18T23:43:39.655Z,100253.80
2023-05-18T23:46:10.276Z,100260.40
2023-05-18T23:48:38.847Z,100256.60
2023-05-18T23:51:07.214Z,100253.40
2023-05-18T23:53:34.980Z,100251.80
2023-05-18T23:56:02.808Z,100248.40
2023-05-18T23:58:31.509Z,100254.40
